Costa Luminosa — ICGU — position and weather

sailwx.info

Track history (hours):
 
Tides and Currents Weather Stations Pressure Air Temp Water Temp Dewpoint Dewpoint Depression Visibility Wind Speed Wind Dir Waves Ship Positions

Costa Luminosa

Last reported at 2017-Nov-18 23:37 UTC. Time now 2017-Nov-23 00:22 UTC.
Position N 44°04' E 014°04'.

Length 294 m; draft 8 m.

Type: Passenger vessel. MMSI: 247257900.

Date/timePositionNaut miles runAvg speedWind from/ knotsBaromVisibWave heightAir tempDewpointWater temp
2017-Nov-18 23:37N 44°04' E 014°04'218.1
2017-Nov-18 23:30N 44°06' E 014°02'918.2
2017-Nov-18 23:00N 44°14' E 013°56'918.0
2017-Nov-18 22:30N 44°21' E 013°49'918.0
2017-Nov-18 22:00N 44°29' E 013°42'917.8
2017-Nov-18 21:30N 44°36' E 013°35'917.9
2017-Nov-18 21:00N 44°44' E 013°28'917.8
2017-Nov-18 20:30N 44°51' E 013°21'917.1
2017-Nov-18 20:00N 44°58' E 013°14'917.3
2017-Nov-18 19:30N 45°03' E 013°05'917.4
2017-Nov-18 19:01N 45°09' E 012°55'917.3
2017-Nov-18 18:30N 45°14' E 012°45'917.2
2017-Nov-18 18:00N 45°20' E 012°36'815.8
2017-Nov-18 17:30N 45°25' E 012°27'4 7.0
2017-Nov-18 17:00N 45°25' E 012°22'3 5.1
2017-Nov-18 16:30N 45°26' E 012°19'0 0.9
2017-Nov-18 15:56N 45°26' E 012°19'0 0.0
2017-Nov-18 15:26N 45°26' E 012°19'0 0.0
2017-Nov-18 14:57N 45°26' E 012°19'0 0.0
2017-Nov-18 14:26N 45°26' E 012°19'0 0.0
2017-Nov-18 13:57N 45°26' E 012°19'0 0.0
2017-Nov-18 13:27N 45°26' E 012°19'0 0.0
2017-Nov-18 12:57N 45°26' E 012°19'0 0.0
2017-Nov-18 12:26N 45°26' E 012°19'0 0.0
2017-Nov-18 11:56N 45°26' E 012°19'0 0.0
2017-Nov-18 11:26N 45°26' E 012°19'0 0.0
2017-Nov-18 10:57N 45°26' E 012°19'0 0.0
2017-Nov-18 10:26N 45°26' E 012°19'0 0.0
2017-Nov-18 09:56N 45°26' E 012°19'0 0.0
2017-Nov-18 09:21N 45°26' E 012°19'0 0.0
2017-Nov-18 08:56N 45°26' E 012°19'0 0.0
2017-Nov-18 08:27N 45°26' E 012°19'0 0.0
2017-Nov-18 07:57N 45°26' E 012°19'0 0.0
2017-Nov-18 07:27N 45°26' E 012°19'1 1.2
2017-Nov-18 07:00N 45°26' E 012°19'3 5.1
2017-Nov-18 06:30N 45°25' E 012°22'4 7.2
2017-Nov-18 06:00N 45°25' E 012°27'612.7
2017-Nov-18 05:30N 45°21' E 012°35'917.7
2017-Nov-18 05:00N 45°15' E 012°44'918.0
2017-Nov-18 04:30N 45°08' E 012°53'816.8
2017-Nov-18 04:00N 45°02' E 013°01'917.4
2017-Nov-18 03:30N 44°59' E 013°13'917.6
2017-Nov-18 03:00N 44°54' E 013°23'917.8
2017-Nov-18 02:30N 44°47' E 013°30'917.7
2017-Nov-18 02:00N 44°39' E 013°36'917.7
2017-Nov-18 01:30N 44°32' E 013°43'917.9
2017-Nov-18 01:00N 44°24' E 013°50'917.7
2017-Nov-18 00:30N 44°17' E 013°57'917.8
2017-Nov-18 00:00N 44°10' E 014°04'917.2
2017-Nov-17 23:30N 44°04' E 014°13'  
2017-Nov-14 19:31N 37°19' E 023°38'019.6
2017-Nov-14 19:30N 37°19' E 023°38'1019.9
2017-Nov-14 18:59N 37°29' E 023°40'1019.8
2017-Nov-14 18:30N 37°38' E 023°43'1019.8
2017-Nov-14 18:00N 37°47' E 023°37'816.3
2017-Nov-14 17:31N 37°55' E 023°36'2 3.3
2017-Nov-14 16:59N 37°56' E 023°38'0 0.0
2017-Nov-14 16:29N 37°56' E 023°38'0 0.0
2017-Nov-14 15:59N 37°56' E 023°38'0 0.0
2017-Nov-14 15:29N 37°56' E 023°38'0 0.0
2017-Nov-14 14:59N 37°56' E 023°38'0 0.0
2017-Nov-14 14:29N 37°56' E 023°38'0 0.0
2017-Nov-14 13:59N 37°56' E 023°38'0 0.0
2017-Nov-14 13:29N 37°56' E 023°38'0 0.0
2017-Nov-14 12:59N 37°56' E 023°38'0 0.0
2017-Nov-14 12:29N 37°56' E 023°38'0 0.0
2017-Nov-14 11:59N 37°56' E 023°38'0 0.0
2017-Nov-14 11:29N 37°56' E 023°38'0 0.0
2017-Nov-14 10:59N 37°56' E 023°38'0 0.0
2017-Nov-14 10:29N 37°56' E 023°38'0 0.0
2017-Nov-14 09:59N 37°56' E 023°38'0 0.0
2017-Nov-14 09:29N 37°56' E 023°38'0 0.0
2017-Nov-14 08:59N 37°56' E 023°38'0 0.0
2017-Nov-14 08:29N 37°56' E 023°38'0 0.0
2017-Nov-14 07:59N 37°56' E 023°38'0 0.0
2017-Nov-14 07:29N 37°56' E 023°38'0 0.0
2017-Nov-14 06:59N 37°56' E 023°38'0 0.0
2017-Nov-14 06:29N 37°56' E 023°38'0 0.0
2017-Nov-14 05:59N 37°56' E 023°38'0 0.0
2017-Nov-14 05:29N 37°56' E 023°38'0 0.0
2017-Nov-14 04:59N 37°56' E 023°38'1 2.4
2017-Nov-14 04:30N 37°56' E 023°37'4 7.7
2017-Nov-14 04:00N 37°52' E 023°38'917.1
2017-Nov-14 03:30N 37°45' E 023°42'816.6
2017-Nov-14 03:00N 37°37' E 023°45'917.3
2017-Nov-14 02:30N 37°28' E 023°42'917.1
2017-Nov-14 02:00N 37°20' E 023°39'58212.1
2017-Nov-12 01:58N 43°54' E 014°16'1220.3
2017-Nov-12 01:23N 44°03' E 014°06'820.2
2017-Nov-12 01:00N 44°09' E 013°60'1020.2
2017-Nov-12 00:30N 44°18' E 013°52'1020.3
2017-Nov-12 00:00N 44°26' E 013°43'1020.2
2017-Nov-11 23:30N 44°35' E 013°36'1020.4
2017-Nov-11 23:00N 44°43' E 013°29'1020.4
2017-Nov-11 22:30N 44°52' E 013°21'1020.4
2017-Nov-11 22:00N 45°00' E 013°13'1020.4
2017-Nov-11 21:30N 45°09' E 013°05'1020.3
2017-Nov-11 21:00N 45°19' E 013°02'918.5
2017-Nov-11 20:30N 45°27' E 013°08'1019.6
2017-Nov-11 20:00N 45°33' E 013°19'1019.5
2017-Nov-11 19:30N 45°37' E 013°31'816.6
2017-Nov-11 19:00N 45°39' E 013°43'2 3.8
2017-Nov-11 18:28N 45°39' E 013°46'0 0.0
2017-Nov-11 17:58N 45°39' E 013°46'0 0.0
2017-Nov-11 17:28N 45°39' E 013°46'0 0.0
2017-Nov-11 16:55N 45°39' E 013°46'0 0.0
2017-Nov-11 16:22N 45°39' E 013°46'0 0.0
2017-Nov-11 15:55N 45°39' E 013°46'0 0.0
2017-Nov-11 15:28N 45°39' E 013°46'0 0.0
2017-Nov-11 14:58N 45°39' E 013°46'0 0.0
2017-Nov-11 14:28N 45°39' E 013°46'0 0.0
2017-Nov-11 13:58N 45°39' E 013°46'0 0.0
2017-Nov-11 13:28N 45°39' E 013°46'0 0.0
2017-Nov-11 12:55N 45°39' E 013°46'0 0.0
2017-Nov-11 12:28N 45°39' E 013°46'0 0.0
2017-Nov-11 12:00N 45°39' E 013°46'1 1.9
2017-Nov-11 11:30N 45°39' E 013°44'714.7
2017-Nov-11 11:00N 45°36' E 013°35'1020.1
2017-Nov-11 10:30N 45°31' E 013°22'1020.2
2017-Nov-11 10:00N 45°29' E 013°08'1020.2
2017-Nov-11 09:30N 45°27' E 012°54'1020.0
2017-Nov-11 09:00N 45°25' E 012°40'713.2
2017-Nov-11 08:30N 45°24' E 012°31'0 0.2
2017-Nov-11 08:00N 45°24' E 012°31'0 0.0
2017-Nov-11 07:30N 45°24' E 012°30'0 0.0
2017-Nov-11 06:54N 45°24' E 012°31'0 0.0
2017-Nov-11 06:30N 45°24' E 012°31'0 0.3
2017-Nov-11 06:00N 45°24' E 012°31'611.6
2017-Nov-11 05:31N 45°20' E 012°36'917.2
2017-Nov-11 05:01N 45°14' E 012°45'917.7
2017-Nov-11 04:31N 45°07' E 012°54'917.9
2017-Nov-11 04:01N 45°03' E 013°05'917.9
2017-Nov-11 03:31N 44°58' E 013°15'917.4
2017-Nov-11 03:01N 44°52' E 013°25'917.9
2017-Nov-11 02:31N 44°45' E 013°31'917.9
2017-Nov-11 02:01N 44°37' E 013°38'917.9
2017-Nov-11 01:31N 44°30' E 013°45'918.1
2017-Nov-11 01:01N 44°22' E 013°52'816.8
2017-Nov-11 00:31N 44°15' E 013°59'714.8
2017-Nov-11 00:00N 44°09' E 014°04'814.4
2017-Nov-10 23:25N 44°04' E 014°14'  
Track history (hours):
 
Tides and Currents Weather Stations Pressure Air Temp Water Temp Dewpoint Dewpoint Depression Visibility Wind Speed Wind Dir Waves Ship Positions

Costa Luminosa

Last reported at 2017-Nov-18 23:37 UTC. Time now 2017-Nov-23 00:22 UTC.
Position N 44°04' E 014°04'.

Length 294 m; draft 8 m.

Type: Passenger vessel. MMSI: 247257900.

Date/timePositionNaut miles runAvg speedWind from/ knotsBaromVisibWave heightAir tempDewpointWater temp
2017-Nov-18 23:37N 44°04' E 014°04'218.1
2017-Nov-18 23:30N 44°06' E 014°02'918.2
2017-Nov-18 23:00N 44°14' E 013°56'918.0
2017-Nov-18 22:30N 44°21' E 013°49'918.0
2017-Nov-18 22:00N 44°29' E 013°42'917.8
2017-Nov-18 21:30N 44°36' E 013°35'917.9
2017-Nov-18 21:00N 44°44' E 013°28'917.8
2017-Nov-18 20:30N 44°51' E 013°21'917.1
2017-Nov-18 20:00N 44°58' E 013°14'917.3
2017-Nov-18 19:30N 45°03' E 013°05'917.4
2017-Nov-18 19:01N 45°09' E 012°55'917.3
2017-Nov-18 18:30N 45°14' E 012°45'917.2
2017-Nov-18 18:00N 45°20' E 012°36'815.8
2017-Nov-18 17:30N 45°25' E 012°27'4 7.0
2017-Nov-18 17:00N 45°25' E 012°22'3 5.1
2017-Nov-18 16:30N 45°26' E 012°19'0 0.9
2017-Nov-18 15:56N 45°26' E 012°19'0 0.0
2017-Nov-18 15:26N 45°26' E 012°19'0 0.0
2017-Nov-18 14:57N 45°26' E 012°19'0 0.0
2017-Nov-18 14:26N 45°26' E 012°19'0 0.0
2017-Nov-18 13:57N 45°26' E 012°19'0 0.0
2017-Nov-18 13:27N 45°26' E 012°19'0 0.0
2017-Nov-18 12:57N 45°26' E 012°19'0 0.0
2017-Nov-18 12:26N 45°26' E 012°19'0 0.0
2017-Nov-18 11:56N 45°26' E 012°19'0 0.0
2017-Nov-18 11:26N 45°26' E 012°19'0 0.0
2017-Nov-18 10:57N 45°26' E 012°19'0 0.0
2017-Nov-18 10:26N 45°26' E 012°19'0 0.0
2017-Nov-18 09:56N 45°26' E 012°19'0 0.0
2017-Nov-18 09:21N 45°26' E 012°19'0 0.0
2017-Nov-18 08:56N 45°26' E 012°19'0 0.0
2017-Nov-18 08:27N 45°26' E 012°19'0 0.0
2017-Nov-18 07:57N 45°26' E 012°19'0 0.0
2017-Nov-18 07:27N 45°26' E 012°19'1 1.2
2017-Nov-18 07:00N 45°26' E 012°19'3 5.1
2017-Nov-18 06:30N 45°25' E 012°22'4 7.2
2017-Nov-18 06:00N 45°25' E 012°27'612.7
2017-Nov-18 05:30N 45°21' E 012°35'917.7
2017-Nov-18 05:00N 45°15' E 012°44'918.0
2017-Nov-18 04:30N 45°08' E 012°53'816.8
2017-Nov-18 04:00N 45°02' E 013°01'917.4
2017-Nov-18 03:30N 44°59' E 013°13'917.6
2017-Nov-18 03:00N 44°54' E 013°23'917.8
2017-Nov-18 02:30N 44°47' E 013°30'917.7
2017-Nov-18 02:00N 44°39' E 013°36'917.7
2017-Nov-18 01:30N 44°32' E 013°43'917.9
2017-Nov-18 01:00N 44°24' E 013°50'917.7
2017-Nov-18 00:30N 44°17' E 013°57'917.8
2017-Nov-18 00:00N 44°10' E 014°04'917.2
2017-Nov-17 23:30N 44°04' E 014°13'  
2017-Nov-14 19:31N 37°19' E 023°38'019.6
2017-Nov-14 19:30N 37°19' E 023°38'1019.9
2017-Nov-14 18:59N 37°29' E 023°40'1019.8
2017-Nov-14 18:30N 37°38' E 023°43'1019.8
2017-Nov-14 18:00N 37°47' E 023°37'816.3
2017-Nov-14 17:31N 37°55' E 023°36'2 3.3
2017-Nov-14 16:59N 37°56' E 023°38'0 0.0
2017-Nov-14 16:29N 37°56' E 023°38'0 0.0
2017-Nov-14 15:59N 37°56' E 023°38'0 0.0
2017-Nov-14 15:29N 37°56' E 023°38'0 0.0
2017-Nov-14 14:59N 37°56' E 023°38'0 0.0
2017-Nov-14 14:29N 37°56' E 023°38'0 0.0
2017-Nov-14 13:59N 37°56' E 023°38'0 0.0
2017-Nov-14 13:29N 37°56' E 023°38'0 0.0
2017-Nov-14 12:59N 37°56' E 023°38'0 0.0
2017-Nov-14 12:29N 37°56' E 023°38'0 0.0
2017-Nov-14 11:59N 37°56' E 023°38'0 0.0
2017-Nov-14 11:29N 37°56' E 023°38'0 0.0
2017-Nov-14 10:59N 37°56' E 023°38'0 0.0
2017-Nov-14 10:29N 37°56' E 023°38'0 0.0
2017-Nov-14 09:59N 37°56' E 023°38'0 0.0
2017-Nov-14 09:29N 37°56' E 023°38'0 0.0
2017-Nov-14 08:59N 37°56' E 023°38'0 0.0
2017-Nov-14 08:29N 37°56' E 023°38'0 0.0
2017-Nov-14 07:59N 37°56' E 023°38'0 0.0
2017-Nov-14 07:29N 37°56' E 023°38'0 0.0
2017-Nov-14 06:59N 37°56' E 023°38'0 0.0
2017-Nov-14 06:29N 37°56' E 023°38'0 0.0
2017-Nov-14 05:59N 37°56' E 023°38'0 0.0
2017-Nov-14 05:29N 37°56' E 023°38'0 0.0
2017-Nov-14 04:59N 37°56' E 023°38'1 2.4
2017-Nov-14 04:30N 37°56' E 023°37'4 7.7
2017-Nov-14 04:00N 37°52' E 023°38'917.1
2017-Nov-14 03:30N 37°45' E 023°42'816.6
2017-Nov-14 03:00N 37°37' E 023°45'917.3
2017-Nov-14 02:30N 37°28' E 023°42'917.1
2017-Nov-14 02:00N 37°20' E 023°39'58212.1
2017-Nov-12 01:58N 43°54' E 014°16'1220.3
2017-Nov-12 01:23N 44°03' E 014°06'820.2
2017-Nov-12 01:00N 44°09' E 013°60'1020.2
2017-Nov-12 00:30N 44°18' E 013°52'1020.3
2017-Nov-12 00:00N 44°26' E 013°43'1020.2
2017-Nov-11 23:30N 44°35' E 013°36'1020.4
2017-Nov-11 23:00N 44°43' E 013°29'1020.4
2017-Nov-11 22:30N 44°52' E 013°21'1020.4
2017-Nov-11 22:00N 45°00' E 013°13'1020.4
2017-Nov-11 21:30N 45°09' E 013°05'1020.3
2017-Nov-11 21:00N 45°19' E 013°02'918.5
2017-Nov-11 20:30N 45°27' E 013°08'1019.6
2017-Nov-11 20:00N 45°33' E 013°19'1019.5
2017-Nov-11 19:30N 45°37' E 013°31'816.6
2017-Nov-11 19:00N 45°39' E 013°43'2 3.8
2017-Nov-11 18:28N 45°39' E 013°46'0 0.0
2017-Nov-11 17:58N 45°39' E 013°46'0 0.0
2017-Nov-11 17:28N 45°39' E 013°46'0 0.0
2017-Nov-11 16:55N 45°39' E 013°46'0 0.0
2017-Nov-11 16:22N 45°39' E 013°46'0 0.0
2017-Nov-11 15:55N 45°39' E 013°46'0 0.0
2017-Nov-11 15:28N 45°39' E 013°46'0 0.0
2017-Nov-11 14:58N 45°39' E 013°46'0 0.0
2017-Nov-11 14:28N 45°39' E 013°46'0 0.0
2017-Nov-11 13:58N 45°39' E 013°46'0 0.0
2017-Nov-11 13:28N 45°39' E 013°46'0 0.0
2017-Nov-11 12:55N 45°39' E 013°46'0 0.0
2017-Nov-11 12:28N 45°39' E 013°46'0 0.0
2017-Nov-11 12:00N 45°39' E 013°46'1 1.9
2017-Nov-11 11:30N 45°39' E 013°44'714.7
2017-Nov-11 11:00N 45°36' E 013°35'1020.1
2017-Nov-11 10:30N 45°31' E 013°22'1020.2
2017-Nov-11 10:00N 45°29' E 013°08'1020.2
2017-Nov-11 09:30N 45°27' E 012°54'1020.0
2017-Nov-11 09:00N 45°25' E 012°40'713.2
2017-Nov-11 08:30N 45°24' E 012°31'0 0.2
2017-Nov-11 08:00N 45°24' E 012°31'0 0.0
2017-Nov-11 07:30N 45°24' E 012°30'0 0.0
2017-Nov-11 06:54N 45°24' E 012°31'0 0.0
2017-Nov-11 06:30N 45°24' E 012°31'0 0.3
2017-Nov-11 06:00N 45°24' E 012°31'611.6
2017-Nov-11 05:31N 45°20' E 012°36'917.2
2017-Nov-11 05:01N 45°14' E 012°45'917.7
2017-Nov-11 04:31N 45°07' E 012°54'917.9
2017-Nov-11 04:01N 45°03' E 013°05'917.9
2017-Nov-11 03:31N 44°58' E 013°15'917.4
2017-Nov-11 03:01N 44°52' E 013°25'917.9
2017-Nov-11 02:31N 44°45' E 013°31'917.9
2017-Nov-11 02:01N 44°37' E 013°38'917.9
2017-Nov-11 01:31N 44°30' E 013°45'918.1
2017-Nov-11 01:01N 44°22' E 013°52'816.8
2017-Nov-11 00:31N 44°15' E 013°59'714.8
2017-Nov-11 00:00N 44°09' E 014°04'814.4
2017-Nov-10 23:25N 44°04' E 014°14'  

Dump ship's entire track history